Wotan — V2CA5 — position and weather

sailwx.info

Track history (hours):
 
Tides and Currents Weather Stations Pressure Air Temp Water Temp Dewpoint Dewpoint Depression Visibility Wind Speed Wind Dir Waves Ship Positions

Wotan

Last reported at 2014-Sep-16 01:18 UTC. Time now 2014-Sep-16 11:33 UTC.
Position N 44°25' W 007°15'.

Length 100 m; draft 4.1 m.

Type: Cargo ship. MMSI: 304195000.

Date/timePositionNaut miles runAvg speedWind from/ knotsBaromVisibWave heightAir tempDewpointWater temp
2014-Sep-16 01:18N 44°25' W 007°15'1 1.6
2014-Sep-16 00:33N 44°24' W 007°14'2 1.7
2014-Sep-15 23:32N 44°22' W 007°13'1 1.0
2014-Sep-15 22:33N 44°22' W 007°11'3 0.8
2014-Sep-15 18:32N 44°19' W 007°09'  
2014-Sep-13 09:27N 44°24' W 007°38'1 0.3
2014-Sep-13 06:23N 44°24' W 007°37'1 0.7
2014-Sep-13 05:33N 44°23' W 007°37'1 1.0
2014-Sep-13 04:21N 44°22' W 007°37'5 1.0
2014-Sep-12 23:33N 44°17' W 007°36'1 1.2
2014-Sep-12 22:33N 44°16' W 007°36'6 1.6
2014-Sep-12 18:33N 44°10' W 007°35'  
2014-Sep-06 01:26N 36°45' W 008°32'  
Track history (hours):
 
Tides and Currents Weather Stations Pressure Air Temp Water Temp Dewpoint Dewpoint Depression Visibility Wind Speed Wind Dir Waves Ship Positions

Wotan

Last reported at 2014-Sep-16 01:18 UTC. Time now 2014-Sep-16 11:33 UTC.
Position N 44°25' W 007°15'.

Length 100 m; draft 4.1 m.

Type: Cargo ship. MMSI: 304195000.

Date/timePositionNaut miles runAvg speedWind from/ knotsBaromVisibWave heightAir tempDewpointWater temp
2014-Sep-16 01:18N 44°25' W 007°15'1 1.6
2014-Sep-16 00:33N 44°24' W 007°14'2 1.7
2014-Sep-15 23:32N 44°22' W 007°13'1 1.0
2014-Sep-15 22:33N 44°22' W 007°11'3 0.8
2014-Sep-15 18:32N 44°19' W 007°09'  
2014-Sep-13 09:27N 44°24' W 007°38'1 0.3
2014-Sep-13 06:23N 44°24' W 007°37'1 0.7
2014-Sep-13 05:33N 44°23' W 007°37'1 1.0
2014-Sep-13 04:21N 44°22' W 007°37'5 1.0
2014-Sep-12 23:33N 44°17' W 007°36'1 1.2
2014-Sep-12 22:33N 44°16' W 007°36'6 1.6
2014-Sep-12 18:33N 44°10' W 007°35'  
2014-Sep-06 01:26N 36°45' W 008°32'  

Dump ship's entire track history